Time;durP1;ratioP1;P1;durP2;ratioP2;P2;SDS_P1;SDS_P2;PMS_P1;PMS_P2;Temp;Humidity;BMP_temperature;BMP_pressure;BME280_temperature;BME280_humidity;BME280_pressure;Samples;Min_cycle;Max_cycle;Signal;HPM_P1;HPM_P2
2021/07/05 00:00:45;;;;;;;;;;;29.10;89.00;;;;;;1873798;74;20631;-88
2021/07/05 00:03:14;;;;;;;;;;;29.10;88.90;;;;;;1880160;74;20166;-86
2021/07/05 00:05:50;;;;;;;;;;;29.20;88.50;;;;;;1865791;75;20188;-87
2021/07/05 00:08:20;;;;;;;;;;;29.10;87.90;;;;;;1874617;74;20426;-85
2021/07/05 00:10:50;;;;;;;;;;;29.20;88.40;;;;;;1816098;77;20202;-87
2021/07/05 00:13:22;;;;;;;;;;;29.20;88.40;;;;;;1829522;75;20253;-87
2021/07/05 00:15:57;;;;;;;;;;;29.30;88.30;;;;;;1810202;77;20315;-87
2021/07/05 00:18:27;;;;;;;;;;;29.40;88.20;;;;;;1813175;76;20483;-88
2021/07/05 00:20:56;;;;;;;;;;;29.50;87.70;;;;;;1816608;77;20138;-87
2021/07/05 00:23:26;;;;;;;;;;;29.50;87.40;;;;;;1823172;76;20897;-86
2021/07/05 00:25:55;;;;;;;;;;;29.60;86.70;;;;;;1796611;78;20230;-86
2021/07/05 00:28:26;;;;;;;;;;;29.60;86.70;;;;;;1823045;76;20172;-87
2021/07/05 00:30:56;;;;;;;;;;;29.60;86.80;;;;;;1822658;76;20241;-88
2021/07/05 00:33:26;;;;;;;;;;;29.70;86.00;;;;;;1800834;78;20209;-88
2021/07/05 00:35:56;;;;;;;;;;;29.80;85.90;;;;;;1840936;76;20557;-87
2021/07/05 00:38:25;;;;;;;;;;;29.80;85.30;;;;;;1827408;76;20161;-87
2021/07/05 00:40:55;;;;;;;;;;;29.90;84.80;;;;;;1823237;76;20212;-87
2021/07/05 00:43:25;;;;;;;;;;;30.00;84.40;;;;;;1824529;76;20270;-85
2021/07/05 00:45:55;;;;;;;;;;;30.00;84.70;;;;;;1828045;77;20483;-88
2021/07/05 00:48:26;;;;;;;;;;;30.00;84.70;;;;;;1792674;78;20150;-87
2021/07/05 00:50:56;;;;;;;;;;;30.00;84.80;;;;;;1825288;77;20335;-87
2021/07/05 00:53:26;;;;;;;;;;;30.10;84.70;;;;;;1830293;76;20165;-88
2021/07/05 00:55:55;;;;;;;;;;;30.20;84.40;;;;;;1841056;77;20410;-86
2021/07/05 00:58:25;;;;;;;;;;;30.30;83.90;;;;;;1849578;76;20399;-87
2021/07/05 01:01:57;;;;;;;;;;;30.30;83.90;;;;;;1848997;76;20131;-86
2021/07/05 01:03:41;;;;;;;;;;;30.40;82.60;;;;;;1810131;77;20121;-88
2021/07/05 01:06:10;;;;;;;;;;;30.40;81.80;;;;;;1825882;77;20264;-88
2021/07/05 01:08:40;;;;;;;;;;;30.40;81.50;;;;;;1813044;76;20214;-89
2021/07/05 01:11:09;;;;;;;;;;;30.60;81.80;;;;;;1871737;74;20258;-89
2021/07/05 01:13:39;;;;;;;;;;;30.60;81.80;;;;;;1855698;76;20248;-85
2021/07/05 01:16:09;;;;;;;;;;;30.70;81.60;;;;;;1855653;75;20278;-89
2021/07/05 01:18:39;;;;;;;;;;;30.70;81.10;;;;;;1852123;74;20445;-88
2021/07/05 01:21:09;;;;;;;;;;;30.80;81.10;;;;;;1859034;75;20174;-88
2021/07/05 01:23:39;;;;;;;;;;;30.90;80.30;;;;;;1875766;74;20180;-88
2021/07/05 01:26:08;;;;;;;;;;;31.00;80.30;;;;;;1872855;75;20184;-88
2021/07/05 01:28:41;;;;;;;;;;;31.10;80.00;;;;;;1860689;76;20273;-88
2021/07/05 01:31:11;;;;;;;;;;;31.20;79.50;;;;;;1875733;75;20358;-88
2021/07/05 01:33:40;;;;;;;;;;;31.40;78.40;;;;;;1873331;75;20184;-87
2021/07/05 01:36:11;;;;;;;;;;;31.40;77.90;;;;;;1875234;75;20529;-88
2021/07/05 01:38:42;;;;;;;;;;;31.60;77.30;;;;;;1868832;74;20219;-85
2021/07/05 01:41:51;;;;;;;;;;;;;;;;;;;;;
2021/07/05 01:44:40;;;;;;;;;;;31.80;76.00;;;;;;1772420;77;20279;-87
2021/07/05 01:47:25;;;;;;;;;;;31.90;76.00;;;;;;1849428;74;20247;-85
2021/07/05 01:49:54;;;;;;;;;;;32.00;75.40;;;;;;1882241;74;20235;-86
2021/07/05 01:52:42;;;;;;;;;;;32.10;75.00;;;;;;1857408;75;20223;-85
2021/07/05 01:55:15;;;;;;;;;;;32.20;74.90;;;;;;1856705;74;20160;-87
2021/07/05 01:57:45;;;;;;;;;;;32.30;74.60;;;;;;1878222;74;20226;-87
2021/07/05 02:00:17;;;;;;;;;;;32.30;74.30;;;;;;1865325;74;20215;-88
2021/07/05 02:02:47;;;;;;;;;;;32.40;74.20;;;;;;1870105;75;20255;-88
2021/07/05 02:05:20;;;;;;;;;;;32.50;73.80;;;;;;1862679;74;20140;-87
2021/07/05 02:07:51;;;;;;;;;;;32.60;72.70;;;;;;1864261;75;20418;-87
2021/07/05 02:10:22;;;;;;;;;;;32.60;73.50;;;;;;1877136;74;20207;-87
2021/07/05 02:12:53;;;;;;;;;;;32.70;73.50;;;;;;1846285;76;20222;-85
2021/07/05 02:15:25;;;;;;;;;;;32.80;73.20;;;;;;1872643;74;20414;-87
2021/07/05 02:17:54;;;;;;;;;;;32.80;73.80;;;;;;1863368;74;20221;-85
2021/07/05 02:20:25;;;;;;;;;;;32.90;72.60;;;;;;1853235;75;20194;-87
2021/07/05 02:22:55;;;;;;;;;;;33.00;72.50;;;;;;1870131;74;20365;-86
2021/07/05 02:25:30;;;;;;;;;;;33.10;71.10;;;;;;1879449;74;20176;-87
2021/07/05 02:27:58;;;;;;;;;;;33.20;71.00;;;;;;1875589;74;20181;-88
2021/07/05 02:30:28;;;;;;;;;;;33.30;70.70;;;;;;1862466;75;20236;-87
2021/07/05 02:33:01;;;;;;;;;;;33.30;70.10;;;;;;1872611;75;20156;-87
2021/07/05 02:35:36;;;;;;;;;;;33.40;70.60;;;;;;1853189;74;20191;-86
2021/07/05 02:38:31;;;;;;;;;;;33.50;69.40;;;;;;1887241;74;20204;-87
2021/07/05 02:41:02;;;;;;;;;;;33.60;68.90;;;;;;1793472;78;20157;-88
2021/07/05 02:43:55;;;;;;;;;;;33.70;68.50;;;;;;1763671;77;20220;-86
2021/07/05 02:46:25;;;;;;;;;;;33.70;67.90;;;;;;1796911;78;20181;-86
2021/07/05 02:48:59;;;;;;;;;;;33.70;68.20;;;;;;1819091;77;20157;-88
2021/07/05 02:51:29;;;;;;;;;;;33.60;68.50;;;;;;1793533;78;20243;-87
2021/07/05 02:53:58;;;;;;;;;;;33.80;67.80;;;;;;1797177;78;20206;-87
2021/07/05 02:56:28;;;;;;;;;;;33.90;67.00;;;;;;1802187;78;20767;-86
2021/07/05 02:58:59;;;;;;;;;;;33.90;66.60;;;;;;1793568;78;20463;-87
2021/07/05 03:01:29;;;;;;;;;;;33.90;66.80;;;;;;1798788;78;20120;-87
2021/07/05 03:04:06;;;;;;;;;;;33.90;66.90;;;;;;1789254;78;20382;-86
2021/07/05 03:06:37;;;;;;;;;;;33.90;66.50;;;;;;1782747;79;20199;-86
2021/07/05 03:09:10;;;;;;;;;;;33.90;66.50;;;;;;1790260;78;20148;-87
2021/07/05 03:14:35;;;;;;;;;;;33.90;66.70;;;;;;1800350;78;20199;-87
2021/07/05 03:17:04;;;;;;;;;;;33.90;67.10;;;;;;1777885;79;20220;-87
2021/07/05 03:19:36;;;;;;;;;;;34.00;67.20;;;;;;1804327;78;20154;-86
2021/07/05 03:22:07;;;;;;;;;;;34.20;66.20;;;;;;1792406;78;20171;-88
2021/07/05 03:24:37;;;;;;;;;;;34.30;65.70;;;;;;1768108;79;20240;-86
2021/07/05 03:27:09;;;;;;;;;;;34.30;66.20;;;;;;1810592;78;20216;-88
2021/07/05 03:29:39;;;;;;;;;;;34.30;65.80;;;;;;1812882;78;20238;-87
2021/07/05 03:32:10;;;;;;;;;;;34.40;65.90;;;;;;1791045;78;20622;-88
2021/07/05 03:34:40;;;;;;;;;;;34.40;66.40;;;;;;1797643;78;20172;-89
2021/07/05 03:37:09;;;;;;;;;;;34.50;65.50;;;;;;1786340;78;20231;-89
2021/07/05 03:39:45;;;;;;;;;;;34.70;65.30;;;;;;1789330;78;20559;-86
2021/07/05 03:42:16;;;;;;;;;;;34.80;65.30;;;;;;1796889;78;20182;-88
2021/07/05 03:44:48;;;;;;;;;;;34.80;64.10;;;;;;1798306;77;20231;-90
2021/07/05 03:47:20;;;;;;;;;;;34.90;63.90;;;;;;1816899;77;20224;-87
2021/07/05 03:49:51;;;;;;;;;;;34.90;63.40;;;;;;1811331;78;20174;-88
2021/07/05 03:52:28;;;;;;;;;;;34.90;64.10;;;;;;1804427;78;20210;-87
2021/07/05 03:55:05;;;;;;;;;;;35.00;63.50;;;;;;1810190;77;20180;-86
2021/07/05 03:57:31;;;;;;;;;;;35.00;63.80;;;;;;1804540;78;20135;-88
2021/07/05 04:00:01;;;;;;;;;;;35.00;63.90;;;;;;1799557;78;20509;-87
2021/07/05 04:02:32;;;;;;;;;;;35.00;63.80;;;;;;1810375;78;20183;-89
2021/07/05 04:05:05;;;;;;;;;;;35.00;63.80;;;;;;1796751;77;20271;-87
2021/07/05 04:07:35;;;;;;;;;;;35.10;63.50;;;;;;1768117;78;20883;-88
2021/07/05 04:10:05;;;;;;;;;;;35.20;62.70;;;;;;1791097;78;20534;-85
2021/07/05 04:12:35;;;;;;;;;;;35.30;62.80;;;;;;1794966;78;20493;-89
2021/07/05 04:15:05;;;;;;;;;;;35.40;62.10;;;;;;1779149;78;20166;-87
2021/07/05 04:17:37;;;;;;;;;;;35.60;62.70;;;;;;1785757;78;20523;-87
2021/07/05 04:20:08;;;;;;;;;;;35.70;60.90;;;;;;1778414;78;20278;-88
2021/07/05 04:22:38;;;;;;;;;;;35.80;60.90;;;;;;1758905;78;20158;-88
2021/07/05 04:25:10;;;;;;;;;;;35.80;60.30;;;;;;1797967;78;20243;-89
2021/07/05 04:27:40;;;;;;;;;;;35.90;61.10;;;;;;1764477;79;20163;-87
2021/07/05 04:30:10;;;;;;;;;;;35.90;60.70;;;;;;1737514;81;20211;-87
2021/07/05 04:32:41;;;;;;;;;;;36.00;60.30;;;;;;1745077;80;20367;-88
2021/07/05 04:35:15;;;;;;;;;;;36.10;60.50;;;;;;1746287;80;20204;-87
2021/07/05 04:37:44;;;;;;;;;;;36.20;61.20;;;;;;1749594;80;20226;-87
2021/07/05 04:40:16;;;;;;;;;;;36.30;60.70;;;;;;1751345;79;20209;-87
2021/07/05 04:42:49;;;;;;;;;;;36.30;59.20;;;;;;1725542;81;20129;-88
2021/07/05 04:45:20;;;;;;;;;;;36.50;59.80;;;;;;1724926;81;20511;-87
2021/07/05 04:48:07;;;;;;;;;;;36.50;60.70;;;;;;1721701;80;20228;-86
2021/07/05 04:50:38;;;;;;;;;;;36.60;58.50;;;;;;1730052;80;20179;-87
2021/07/05 04:53:11;;;;;;;;;;;36.70;57.30;;;;;;1746417;81;20214;-87
2021/07/05 04:55:41;;;;;;;;;;;36.70;56.80;;;;;;1750063;80;20127;-86
2021/07/05 04:58:11;;;;;;;;;;;36.60;57.70;;;;;;1761780;80;20193;-87
2021/07/05 05:00:41;;;;;;;;;;;36.70;58.40;;;;;;1772436;79;20466;-87
2021/07/05 05:03:11;;;;;;;;;;;36.70;56.10;;;;;;1776226;78;20233;-86
2021/07/05 05:05:41;;;;;;;;;;;36.80;55.70;;;;;;1788571;79;20156;-86
2021/07/05 05:08:23;;;;;;;;;;;36.90;57.30;;;;;;1792967;78;20198;-85
2021/07/05 05:10:52;;;;;;;;;;;36.90;57.50;;;;;;1807735;77;20224;-87
2021/07/05 05:13:22;;;;;;;;;;;37.00;56.50;;;;;;1803635;77;20195;-86
2021/07/05 05:15:52;;;;;;;;;;;36.90;56.70;;;;;;1800542;78;20199;-88
2021/07/05 05:18:22;;;;;;;;;;;36.90;57.00;;;;;;1803636;79;20294;-88
2021/07/05 05:20:55;;;;;;;;;;;37.00;56.90;;;;;;1791271;79;20199;-86
2021/07/05 05:23:25;;;;;;;;;;;36.90;56.50;;;;;;1788829;78;20184;-87
2021/07/05 05:25:55;;;;;;;;;;;36.60;56.90;;;;;;1792588;78;20470;-86
2021/07/05 05:28:24;;;;;;;;;;;36.40;57.30;;;;;;1777291;79;20202;-86
2021/07/05 05:30:54;;;;;;;;;;;36.20;58.40;;;;;;1783432;79;20262;-85
2021/07/05 05:33:23;;;;;;;;;;;36.00;58.90;;;;;;1790236;78;20235;-86
2021/07/05 05:35:53;;;;;;;;;;;35.90;61.40;;;;;;1792444;78;20185;-86
2021/07/05 05:38:23;;;;;;;;;;;35.80;62.20;;;;;;1803962;78;20193;-86
2021/07/05 05:40:52;;;;;;;;;;;35.80;62.40;;;;;;1802898;77;20218;-87
2021/07/05 05:43:22;;;;;;;;;;;35.70;63.30;;;;;;1798866;78;20184;-87
2021/07/05 05:45:52;;;;;;;;;;;35.60;63.70;;;;;;1802206;78;20243;-86
2021/07/05 05:48:23;;;;;;;;;;;35.50;62.90;;;;;;1795573;79;20189;-86
2021/07/05 05:50:52;;;;;;;;;;;35.60;63.00;;;;;;1809293;78;20219;-86
2021/07/05 05:53:22;;;;;;;;;;;35.50;63.20;;;;;;1807081;78;20121;-84
2021/07/05 05:55:52;;;;;;;;;;;35.40;63.70;;;;;;1807265;78;20175;-86
2021/07/05 05:58:21;;;;;;;;;;;35.40;64.40;;;;;;1811651;77;20209;-86
2021/07/05 06:00:51;;;;;;;;;;;35.30;64.20;;;;;;1815773;77;20163;-88
2021/07/05 06:03:21;;;;;;;;;;;35.30;64.80;;;;;;1780119;78;20187;-84
2021/07/05 06:05:51;;;;;;;;;;;35.30;64.90;;;;;;1794201;78;20136;-87
2021/07/05 06:08:21;;;;;;;;;;;35.40;64.50;;;;;;1796700;78;20182;-86
2021/07/05 06:10:51;;;;;;;;;;;35.40;63.50;;;;;;1791013;78;20184;-87
2021/07/05 06:13:21;;;;;;;;;;;35.50;64.20;;;;;;1713243;81;20244;-87
2021/07/05 06:15:52;;;;;;;;;;;35.60;62.30;;;;;;1761702;80;20266;-87
2021/07/05 06:18:27;;;;;;;;;;;35.70;62.10;;;;;;1799222;78;20180;-87
2021/07/05 06:20:56;;;;;;;;;;;35.60;62.50;;;;;;1793247;78;20190;-87
2021/07/05 06:23:28;;;;;;;;;;;35.60;62.60;;;;;;1810002;78;20158;-88
2021/07/05 06:26:04;;;;;;;;;;;35.60;63.20;;;;;;1791701;77;20596;-88
2021/07/05 06:28:32;;;;;;;;;;;35.60;63.20;;;;;;1772829;80;20220;-91
2021/07/05 06:31:03;;;;;;;;;;;35.60;63.00;;;;;;1753294;80;20205;-88
2021/07/05 06:33:33;;;;;;;;;;;35.50;63.30;;;;;;1726130;81;20165;-90
2021/07/05 06:36:04;;;;;;;;;;;35.40;62.70;;;;;;1734726;80;20249;-87
2021/07/05 06:38:34;;;;;;;;;;;35.40;63.40;;;;;;1747563;80;20261;-90
2021/07/05 06:41:04;;;;;;;;;;;35.40;63.50;;;;;;1749527;81;20205;-81
2021/07/05 06:43:34;;;;;;;;;;;35.30;63.60;;;;;;1755084;80;20231;-90
2021/07/05 06:46:05;;;;;;;;;;;35.30;63.80;;;;;;1819388;77;20129;-86
2021/07/05 06:48:34;;;;;;;;;;;35.30;63.70;;;;;;1800602;78;20201;-90
2021/07/05 06:51:04;;;;;;;;;;;35.30;63.70;;;;;;1782532;79;20183;-90
2021/07/05 06:53:34;;;;;;;;;;;35.40;63.50;;;;;;1810729;77;20223;-89
2021/07/05 06:56:04;;;;;;;;;;;35.50;62.50;;;;;;1785870;77;20199;-86
2021/07/05 06:58:35;;;;;;;;;;;35.60;62.90;;;;;;1795687;78;20183;-90
2021/07/05 07:01:05;;;;;;;;;;;35.60;62.30;;;;;;1780006;79;20175;-90
2021/07/05 07:03:34;;;;;;;;;;;35.50;62.80;;;;;;1795332;78;20193;-90
2021/07/05 07:06:04;;;;;;;;;;;35.40;62.70;;;;;;1778121;77;20269;-90
2021/07/05 07:08:34;;;;;;;;;;;35.40;63.00;;;;;;1784729;78;20298;-90
2021/07/05 07:11:04;;;;;;;;;;;35.30;63.10;;;;;;1793285;78;20503;-90
2021/07/05 07:13:34;;;;;;;;;;;35.30;62.80;;;;;;1782343;79;20214;-93
2021/07/05 07:16:06;;;;;;;;;;;35.20;63.00;;;;;;1788031;78;20184;-92
2021/07/05 07:21:07;;;;;;;;;;;35.10;63.70;;;;;;1792259;78;20192;-89
2021/07/05 07:23:37;;;;;;;;;;;35.10;63.30;;;;;;1725698;81;20442;-90
2021/07/05 07:26:06;;;;;;;;;;;35.10;63.00;;;;;;1732894;80;20212;-91
2021/07/05 07:28:37;;;;;;;;;;;35.10;63.30;;;;;;1747264;80;20158;-89
2021/07/05 07:31:07;;;;;;;;;;;35.10;63.00;;;;;;1726235;81;20573;-89
2021/07/05 07:33:37;;;;;;;;;;;35.20;63.20;;;;;;1739838;81;20304;-88
2021/07/05 07:36:07;;;;;;;;;;;35.20;62.60;;;;;;1744154;79;20402;-90
2021/07/05 07:38:41;;;;;;;;;;;35.30;63.20;;;;;;1727131;80;20228;-90
2021/07/05 07:41:07;;;;;;;;;;;35.30;63.20;;;;;;1774624;78;20182;-91
2021/07/05 07:43:38;;;;;;;;;;;35.30;62.50;;;;;;1801233;78;20225;-89
2021/07/05 07:46:08;;;;;;;;;;;35.30;62.20;;;;;;1801294;78;21078;-92
2021/07/05 07:48:38;;;;;;;;;;;35.30;62.50;;;;;;1799868;78;20204;-88
2021/07/05 07:51:08;;;;;;;;;;;35.20;62.30;;;;;;1812773;77;20204;-86
2021/07/05 07:53:38;;;;;;;;;;;35.20;62.40;;;;;;1800249;78;20616;-89
2021/07/05 07:56:08;;;;;;;;;;;35.20;62.10;;;;;;1806438;78;20421;-90
2021/07/05 07:58:40;;;;;;;;;;;35.20;62.50;;;;;;1802127;78;20304;-90
2021/07/05 08:01:10;;;;;;;;;;;35.20;63.20;;;;;;1807984;78;20119;-91
2021/07/05 08:03:40;;;;;;;;;;;35.20;60.80;;;;;;1800212;78;20245;-90
2021/07/05 08:06:10;;;;;;;;;;;35.20;62.30;;;;;;1785965;77;20212;-83
2021/07/05 08:08:40;;;;;;;;;;;35.20;62.30;;;;;;1784936;79;20395;-84
2021/07/05 08:11:09;;;;;;;;;;;35.20;62.00;;;;;;1777023;78;20266;-82
2021/07/05 08:13:40;;;;;;;;;;;35.30;62.50;;;;;;1794594;77;20204;-82
2021/07/05 08:16:10;;;;;;;;;;;35.30;62.30;;;;;;1797696;78;20223;-82
2021/07/05 08:18:40;;;;;;;;;;;35.40;62.00;;;;;;1792003;78;20208;-81
2021/07/05 08:21:10;;;;;;;;;;;35.50;61.90;;;;;;1799513;78;20122;-83
2021/07/05 08:23:40;;;;;;;;;;;35.60;61.50;;;;;;1794736;79;20491;-84
2021/07/05 08:26:10;;;;;;;;;;;35.60;59.80;;;;;;1791561;77;20458;-83
2021/07/05 08:28:41;;;;;;;;;;;35.70;60.00;;;;;;1793231;78;20240;-82
2021/07/05 08:31:11;;;;;;;;;;;35.70;59.60;;;;;;1808363;77;20174;-83
2021/07/05 08:33:42;;;;;;;;;;;35.70;60.00;;;;;;1803438;77;20246;-81
2021/07/05 08:36:12;;;;;;;;;;;35.80;58.70;;;;;;1793290;78;20138;-83
2021/07/05 08:38:41;;;;;;;;;;;35.80;59.80;;;;;;1791425;78;20192;-82
2021/07/05 08:41:11;;;;;;;;;;;35.80;59.50;;;;;;1784497;78;20192;-84
2021/07/05 08:43:42;;;;;;;;;;;35.80;59.10;;;;;;1775155;78;20194;-83
2021/07/05 08:46:20;;;;;;;;;;;35.80;58.30;;;;;;1782266;79;20217;-81
2021/07/05 08:48:58;;;;;;;;;;;35.90;58.50;;;;;;1765795;78;20303;-84
2021/07/05 08:51:28;;;;;;;;;;;35.90;57.70;;;;;;1791203;78;20181;-83
2021/07/05 08:53:58;;;;;;;;;;;35.90;58.00;;;;;;1780307;78;20485;-84
2021/07/05 08:56:29;;;;;;;;;;;35.80;56.20;;;;;;1781017;77;20206;-84
2021/07/05 08:58:59;;;;;;;;;;;35.80;57.30;;;;;;1754692;79;20216;-82
2021/07/05 09:01:29;;;;;;;;;;;35.80;56.60;;;;;;1757134;79;20233;-81
2021/07/05 09:03:59;;;;;;;;;;;35.80;57.00;;;;;;1731649;81;20254;-79
2021/07/05 09:06:31;;;;;;;;;;;35.80;56.80;;;;;;1731105;79;20291;-88
2021/07/05 09:09:01;;;;;;;;;;;35.80;57.00;;;;;;1794067;78;20517;-82
2021/07/05 09:11:32;;;;;;;;;;;35.70;57.00;;;;;;1797057;78;20227;-83
2021/07/05 09:14:02;;;;;;;;;;;35.70;56.40;;;;;;1798207;78;20174;-82
2021/07/05 09:16:37;;;;;;;;;;;35.70;54.40;;;;;;1790313;78;20416;-82
2021/07/05 09:19:05;;;;;;;;;;;35.80;56.20;;;;;;1793604;77;20201;-84
2021/07/05 09:21:35;;;;;;;;;;;35.80;56.50;;;;;;1778301;78;20181;-83
2021/07/05 09:24:07;;;;;;;;;;;35.80;56.40;;;;;;1772618;78;20168;-82
2021/07/05 09:26:39;;;;;;;;;;;35.80;56.50;;;;;;1742142;80;20570;-84
2021/07/05 09:29:10;;;;;;;;;;;35.80;56.10;;;;;;1753759;79;20277;-83
2021/07/05 09:31:41;;;;;;;;;;;35.70;56.60;;;;;;1765163;78;20504;-84
2021/07/05 09:34:12;;;;;;;;;;;35.70;56.60;;;;;;1751227;80;20268;-82
2021/07/05 09:36:43;;;;;;;;;;;35.70;56.50;;;;;;1735472;80;20204;-82
2021/07/05 09:39:14;;;;;;;;;;;35.70;57.00;;;;;;1738088;81;20217;-83
2021/07/05 09:41:52;;;;;;;;;;;35.70;57.20;;;;;;1774731;78;20182;-82
2021/07/05 09:44:25;;;;;;;;;;;35.70;56.60;;;;;;1793669;78;20257;-82
2021/07/05 09:46:56;;;;;;;;;;;35.70;56.80;;;;;;1790930;77;20401;-82
2021/07/05 09:49:27;;;;;;;;;;;35.60;56.60;;;;;;1761629;78;20222;-87
2021/07/05 09:51:58;;;;;;;;;;;35.60;56.60;;;;;;1784037;79;20184;-82
2021/07/05 09:54:28;;;;;;;;;;;35.60;56.60;;;;;;1780454;79;21109;-83
2021/07/05 09:56:57;;;;;;;;;;;35.60;56.20;;;;;;1785989;77;20226;-83
2021/07/05 09:59:29;;;;;;;;;;;35.60;56.50;;;;;;1792924;78;20232;-83
2021/07/05 10:01:59;;;;;;;;;;;35.60;56.60;;;;;;1785736;78;20183;-82
2021/07/05 10:04:42;;;;;;;;;;;35.60;55.70;;;;;;1809062;78;20156;-83
2021/07/05 10:07:03;;;;;;;;;;;35.60;55.00;;;;;;1810847;77;20279;-82
2021/07/05 10:09:34;;;;;;;;;;;35.60;56.80;;;;;;1792701;78;20198;-83
2021/07/05 10:12:05;;;;;;;;;;;35.50;56.50;;;;;;1791584;78;20239;-84
2021/07/05 10:14:34;;;;;;;;;;;35.50;57.00;;;;;;1785725;77;20133;-84
2021/07/05 10:17:08;;;;;;;;;;;35.50;57.10;;;;;;1770991;78;20160;-85
2021/07/05 10:19:38;;;;;;;;;;;35.50;57.40;;;;;;1797095;78;20495;-84
2021/07/05 10:22:10;;;;;;;;;;;35.50;57.30;;;;;;1799444;78;20239;-82
2021/07/05 10:24:41;;;;;;;;;;;35.40;57.20;;;;;;1782986;78;20265;-83
2021/07/05 10:27:14;;;;;;;;;;;35.30;56.60;;;;;;1800031;78;21532;-82
2021/07/05 10:29:46;;;;;;;;;;;35.40;57.20;;;;;;1781856;79;20160;-83
2021/07/05 10:32:16;;;;;;;;;;;35.40;57.60;;;;;;1789940;78;20282;-83
2021/07/05 10:34:49;;;;;;;;;;;35.30;58.00;;;;;;1796374;78;20699;-83
2021/07/05 10:37:25;;;;;;;;;;;35.30;58.10;;;;;;1799920;77;20177;-81
2021/07/05 10:39:52;;;;;;;;;;;35.30;58.20;;;;;;1795685;78;20239;-82
2021/07/05 10:42:23;;;;;;;;;;;35.30;58.30;;;;;;1793341;78;20217;-82
2021/07/05 10:44:53;;;;;;;;;;;35.20;57.80;;;;;;1773078;79;20275;-83
2021/07/05 10:47:26;;;;;;;;;;;35.20;57.40;;;;;;1756911;78;20244;-84
2021/07/05 10:50:01;;;;;;;;;;;35.20;57.50;;;;;;1757867;78;20165;-82
2021/07/05 10:52:28;;;;;;;;;;;35.20;57.30;;;;;;1812894;77;20177;-81
2021/07/05 10:54:58;;;;;;;;;;;35.20;57.20;;;;;;1777766;78;20208;-83
2021/07/05 10:57:29;;;;;;;;;;;35.20;57.80;;;;;;1791650;78;20212;-83
2021/07/05 11:00:03;;;;;;;;;;;35.20;57.40;;;;;;1781155;77;20608;-85
2021/07/05 11:02:33;;;;;;;;;;;35.20;57.20;;;;;;1782390;78;20256;-82
2021/07/05 11:05:06;;;;;;;;;;;35.10;57.80;;;;;;1792475;78;20132;-84
2021/07/05 11:07:36;;;;;;;;;;;35.10;58.10;;;;;;1797678;77;20246;-84
2021/07/05 11:10:10;;;;;;;;;;;35.10;57.40;;;;;;1792172;77;20208;-83
2021/07/05 11:12:39;;;;;;;;;;;35.10;57.30;;;;;;1787515;78;20242;-85
2021/07/05 11:15:10;;;;;;;;;;;35.10;58.30;;;;;;1766752;79;20224;-82
2021/07/05 11:17:43;;;;;;;;;;;35.00;57.30;;;;;;1740096;80;20252;-82
2021/07/05 11:20:15;;;;;;;;;;;35.00;58.20;;;;;;1710947;82;20206;-83
2021/07/05 11:22:45;;;;;;;;;;;35.00;57.90;;;;;;1729243;81;20209;-84
2021/07/05 11:25:16;;;;;;;;;;;35.00;57.40;;;;;;1740372;81;20251;-84
2021/07/05 11:27:47;;;;;;;;;;;34.90;59.70;;;;;;1750604;81;20242;-84
2021/07/05 11:30:18;;;;;;;;;;;34.90;59.10;;;;;;1797652;78;20243;-84
2021/07/05 11:32:49;;;;;;;;;;;34.80;60.00;;;;;;1807060;78;20567;-83
2021/07/05 11:35:20;;;;;;;;;;;34.80;60.90;;;;;;1769974;78;20184;-83
2021/07/05 11:37:51;;;;;;;;;;;34.70;61.50;;;;;;1785318;78;20168;-84
2021/07/05 11:40:22;;;;;;;;;;;34.70;62.10;;;;;;1797602;79;20231;-84
2021/07/05 11:42:53;;;;;;;;;;;34.60;65.00;;;;;;1796043;78;20172;-81
2021/07/05 11:45:24;;;;;;;;;;;34.50;62.90;;;;;;1820654;78;20235;-84
2021/07/05 11:47:54;;;;;;;;;;;34.50;63.10;;;;;;1788520;79;20178;-83
2021/07/05 11:50:27;;;;;;;;;;;34.40;63.40;;;;;;1811388;78;20188;-83
2021/07/05 11:52:57;;;;;;;;;;;34.40;65.50;;;;;;1788051;78;20229;-84
2021/07/05 11:55:29;;;;;;;;;;;34.30;66.10;;;;;;1761917;78;20182;-83
2021/07/05 11:58:00;;;;;;;;;;;34.30;65.70;;;;;;1771210;79;20297;-84
2021/07/05 12:00:31;;;;;;;;;;;34.30;66.30;;;;;;1791811;77;20570;-84
2021/07/05 12:03:02;;;;;;;;;;;34.20;66.00;;;;;;1778232;78;20133;-82
2021/07/05 12:05:33;;;;;;;;;;;34.20;66.90;;;;;;1807344;78;20259;-84
2021/07/05 12:08:04;;;;;;;;;;;34.10;66.40;;;;;;1778994;78;20142;-84
2021/07/05 12:10:35;;;;;;;;;;;34.10;66.60;;;;;;1787068;79;20239;-84
2021/07/05 12:13:06;;;;;;;;;;;34.00;66.00;;;;;;1791016;79;20228;-84
2021/07/05 12:15:36;;;;;;;;;;;33.90;67.50;;;;;;1770076;77;20444;-84
2021/07/05 12:18:06;;;;;;;;;;;33.90;68.00;;;;;;1767640;77;20500;-84
2021/07/05 12:20:36;;;;;;;;;;;33.90;68.80;;;;;;1767103;79;20131;-83
2021/07/05 12:23:07;;;;;;;;;;;33.90;67.80;;;;;;1797224;78;20196;-83
2021/07/05 12:25:36;;;;;;;;;;;33.90;67.30;;;;;;1787058;78;20515;-84
2021/07/05 12:28:08;;;;;;;;;;;33.90;67.90;;;;;;1799203;77;20185;-84
2021/07/05 12:30:38;;;;;;;;;;;33.90;68.30;;;;;;1805161;78;20268;-83
2021/07/05 12:33:10;;;;;;;;;;;33.90;70.00;;;;;;1781047;77;20158;-83
2021/07/05 12:35:40;;;;;;;;;;;33.90;70.20;;;;;;1800141;78;20184;-82
2021/07/05 12:38:11;;;;;;;;;;;33.90;69.10;;;;;;1796440;78;20227;-83
2021/07/05 12:40:45;;;;;;;;;;;33.90;69.40;;;;;;1791870;79;20416;-82
2021/07/05 12:43:15;;;;;;;;;;;33.80;71.30;;;;;;1782166;78;20164;-82
2021/07/05 12:45:46;;;;;;;;;;;33.80;71.60;;;;;;1795528;78;20176;-83
2021/07/05 12:48:17;;;;;;;;;;;33.70;72.40;;;;;;1798737;78;20534;-83
2021/07/05 12:50:49;;;;;;;;;;;33.70;72.60;;;;;;1783798;78;20162;-83
2021/07/05 12:53:20;;;;;;;;;;;33.60;72.80;;;;;;1782372;79;20180;-81
2021/07/05 12:55:50;;;;;;;;;;;33.60;73.60;;;;;;1719340;79;20217;-83
2021/07/05 12:58:22;;;;;;;;;;;33.50;72.00;;;;;;1725321;81;20150;-82
2021/07/05 13:00:52;;;;;;;;;;;33.40;70.60;;;;;;1782414;78;20239;-83
2021/07/05 13:03:22;;;;;;;;;;;33.30;70.20;;;;;;1787751;79;20268;-83
2021/07/05 13:05:53;;;;;;;;;;;33.20;69.20;;;;;;1788443;78;20273;-83
2021/07/05 13:08:24;;;;;;;;;;;33.10;69.00;;;;;;1791288;78;20219;-83
2021/07/05 13:10:54;;;;;;;;;;;33.00;68.40;;;;;;1805132;78;20188;-84
2021/07/05 13:13:26;;;;;;;;;;;33.00;68.60;;;;;;1801705;79;20219;-83
2021/07/05 13:15:56;;;;;;;;;;;32.90;68.70;;;;;;1784258;79;20140;-83
2021/07/05 13:18:26;;;;;;;;;;;32.90;68.90;;;;;;1795211;78;20258;-83
2021/07/05 13:20:58;;;;;;;;;;;32.80;68.40;;;;;;1787026;78;20256;-83
2021/07/05 13:23:29;;;;;;;;;;;32.80;68.80;;;;;;1806154;77;20203;-91
2021/07/05 13:25:59;;;;;;;;;;;32.80;68.70;;;;;;1793007;78;20168;-92
2021/07/05 13:28:29;;;;;;;;;;;32.70;68.80;;;;;;1782451;78;20214;-92
2021/07/05 13:30:58;;;;;;;;;;;32.70;68.90;;;;;;1791869;78;20210;-89
2021/07/05 13:33:29;;;;;;;;;;;32.60;69.10;;;;;;1796249;77;20295;-92
2021/07/05 13:36:00;;;;;;;;;;;32.60;69.10;;;;;;1770575;78;20161;-92
2021/07/05 13:38:34;;;;;;;;;;;32.60;69.50;;;;;;1800513;78;20129;-92
2021/07/05 13:41:05;;;;;;;;;;;32.50;69.50;;;;;;1758236;78;20311;-91
2021/07/05 13:43:35;;;;;;;;;;;32.40;70.40;;;;;;1751147;80;20263;-91
2021/07/05 13:46:05;;;;;;;;;;;32.40;69.70;;;;;;1768909;80;20388;-91
2021/07/05 13:48:39;;;;;;;;;;;32.40;69.80;;;;;;1795243;78;20230;-93
2021/07/05 13:51:11;;;;;;;;;;;32.40;70.00;;;;;;1799264;78;20174;-92
2021/07/05 13:53:42;;;;;;;;;;;32.30;70.40;;;;;;1811474;77;20190;-90
2021/07/05 13:56:19;;;;;;;;;;;32.30;70.60;;;;;;1791399;78;20184;-92
2021/07/05 13:58:49;;;;;;;;;;;32.20;70.90;;;;;;1812075;78;20346;-93
2021/07/05 14:01:21;;;;;;;;;;;32.20;71.20;;;;;;1723619;81;20434;-92
2021/07/05 14:03:51;;;;;;;;;;;32.20;71.60;;;;;;1721643;81;20214;-92
2021/07/05 14:06:21;;;;;;;;;;;32.20;72.00;;;;;;1775074;79;20198;-91
2021/07/05 14:08:52;;;;;;;;;;;32.10;72.10;;;;;;1746970;81;20165;-90
2021/07/05 14:11:23;;;;;;;;;;;32.10;72.40;;;;;;1727511;81;20485;-93
2021/07/05 14:13:56;;;;;;;;;;;32.00;72.30;;;;;;1733221;80;20592;-91
2021/07/05 14:16:29;;;;;;;;;;;31.90;72.80;;;;;;1724119;81;20219;-94
2021/07/05 14:19:00;;;;;;;;;;;31.90;73.00;;;;;;1735910;80;20223;-92
2021/07/05 14:21:39;;;;;;;;;;;31.80;73.40;;;;;;1724398;80;20507;-92
2021/07/05 14:24:11;;;;;;;;;;;31.70;73.60;;;;;;1754502;80;20156;-92
2021/07/05 14:26:45;;;;;;;;;;;31.60;73.90;;;;;;1756861;80;20547;-92
2021/07/05 14:29:14;;;;;;;;;;;31.40;74.50;;;;;;1749592;80;20542;-92
2021/07/05 14:31:45;;;;;;;;;;;31.40;75.20;;;;;;1723447;81;20197;-92
2021/07/05 14:34:16;;;;;;;;;;;31.20;75.80;;;;;;1725884;81;20122;-91
2021/07/05 14:36:48;;;;;;;;;;;31.10;76.00;;;;;;1727090;80;20244;-93
2021/07/05 14:39:18;;;;;;;;;;;31.10;75.90;;;;;;1751583;79;20327;-92
2021/07/05 14:41:48;;;;;;;;;;;31.10;76.30;;;;;;1738315;80;20282;-92
2021/07/05 14:44:18;;;;;;;;;;;31.10;76.40;;;;;;1748332;80;20505;-93
2021/07/05 14:46:48;;;;;;;;;;;31.10;76.20;;;;;;1752526;79;20194;-91